createdAt,value
2018-07-30T00:00:37.748Z,1006.77
2018-07-30T00:01:37.779Z,1006.73
2018-07-30T00:02:37.807Z,1006.78
2018-07-30T00:03:37.835Z,1006.76
2018-07-30T00:04:37.863Z,1006.77
2018-07-30T00:05:37.888Z,1006.78
2018-07-30T00:06:37.920Z,1006.78
2018-07-30T00:07:37.947Z,1006.80
2018-07-30T00:08:37.974Z,1006.78
2018-07-30T00:09:38.005Z,1006.81
2018-07-30T00:10:38.033Z,1006.78
2018-07-30T00:11:38.061Z,1006.81
2018-07-30T00:12:38.087Z,1006.79
2018-07-30T00:13:38.117Z,1006.81
2018-07-30T00:14:38.142Z,1006.83
2018-07-30T00:15:38.172Z,1006.88
2018-07-30T00:16:38.202Z,1006.86
2018-07-30T00:17:38.227Z,1006.87
2018-07-30T00:18:38.256Z,1006.84
2018-07-30T00:19:38.287Z,1006.83
2018-07-30T00:20:38.315Z,1006.84
2018-07-30T00:21:38.342Z,1006.83
2018-07-30T00:22:38.372Z,1006.78
2018-07-30T00:23:38.396Z,1006.78
2018-07-30T00:24:38.426Z,1006.79
2018-07-30T00:25:38.456Z,1006.75
2018-07-30T00:26:38.481Z,1006.78
2018-07-30T00:27:38.512Z,1006.78
2018-07-30T00:28:38.539Z,1006.77
2018-07-30T00:29:38.567Z,1006.75
2018-07-30T00:30:38.595Z,1006.76
2018-07-30T00:31:38.623Z,1006.80
2018-07-30T00:32:38.652Z,1006.76
2018-07-30T00:33:38.679Z,1006.75
2018-07-30T00:34:38.707Z,1006.75
2018-07-30T00:35:38.736Z,1006.75
2018-07-30T00:36:38.762Z,1006.75
2018-07-30T00:37:38.792Z,1006.73
2018-07-30T00:38:38.819Z,1006.77
2018-07-30T00:39:38.847Z,1006.74
2018-07-30T00:40:38.876Z,1006.71
2018-07-30T00:41:38.905Z,1006.77
2018-07-30T00:42:38.931Z,1006.73
2018-07-30T00:43:38.961Z,1006.74
2018-07-30T00:44:38.988Z,1006.78
2018-07-30T00:45:39.015Z,1006.73
2018-07-30T00:46:39.044Z,1006.74
2018-07-30T00:47:39.073Z,1006.75
2018-07-30T00:48:39.102Z,1006.76
2018-07-30T00:49:39.127Z,1006.75
2018-07-30T00:50:39.156Z,1006.79
2018-07-30T00:51:39.184Z,1006.77
2018-07-30T00:52:39.215Z,1006.79
2018-07-30T00:53:39.242Z,1006.78
2018-07-30T00:54:39.269Z,1006.81
2018-07-30T00:55:39.299Z,1006.81
2018-07-30T00:56:39.327Z,1006.77
2018-07-30T00:57:39.355Z,1006.81
2018-07-30T00:58:39.381Z,1006.80
2018-07-30T00:59:39.412Z,1006.79
2018-07-30T01:00:39.439Z,1006.80
2018-07-30T01:01:39.465Z,1006.79
2018-07-30T01:02:39.494Z,1006.78
2018-07-30T01:03:39.523Z,1006.82
2018-07-30T01:04:39.551Z,1006.83
2018-07-30T01:05:39.578Z,1006.85
2018-07-30T01:06:39.607Z,1006.85
2018-07-30T01:07:39.670Z,1006.85
2018-07-30T01:08:39.663Z,1006.86
2018-07-30T01:09:39.691Z,1006.87
2018-07-30T01:10:39.728Z,1006.94
2018-07-30T01:11:39.750Z,1006.90
2018-07-30T01:12:39.775Z,1006.92
2018-07-30T01:13:39.805Z,1006.94
2018-07-30T01:14:39.831Z,1006.95
2018-07-30T01:15:39.859Z,1006.94
2018-07-30T01:16:39.888Z,1006.98
2018-07-30T01:17:39.918Z,1006.94
2018-07-30T01:18:39.945Z,1006.92
2018-07-30T01:19:39.974Z,1006.92
2018-07-30T01:20:40.005Z,1006.92
2018-07-30T01:21:40.081Z,1006.90
2018-07-30T01:22:40.057Z,1006.93
2018-07-30T01:23:40.094Z,1006.94
2018-07-30T01:24:40.113Z,1006.92
2018-07-30T01:25:40.139Z,1006.95
2018-07-30T01:26:40.168Z,1006.94
2018-07-30T01:27:40.196Z,1006.94
2018-07-30T01:28:40.226Z,1006.94
2018-07-30T01:29:40.252Z,1006.92
2018-07-30T01:30:40.283Z,1006.95
2018-07-30T01:31:40.309Z,1007.01
2018-07-30T01:32:40.337Z,1006.97
2018-07-30T01:33:40.367Z,1007.02
2018-07-30T01:34:40.396Z,1007.01
2018-07-30T01:35:40.424Z,1006.97
2018-07-30T01:36:40.451Z,1006.99
2018-07-30T01:37:40.478Z,1006.99
2018-07-30T01:38:40.507Z,1007.02
2018-07-30T01:39:40.533Z,1006.98
2018-07-30T01:40:40.564Z,1007.08
2018-07-30T01:41:40.589Z,1007.00
2018-07-30T01:42:40.616Z,1007.05
2018-07-30T01:43:40.648Z,1007.03
2018-07-30T01:44:40.676Z,1007.04
2018-07-30T01:45:40.701Z,1007.02
2018-07-30T01:46:40.733Z,1007.03
2018-07-30T01:47:40.761Z,1007.08
2018-07-30T01:48:40.786Z,1007.03
2018-07-30T01:49:40.812Z,1007.03
2018-07-30T01:50:40.841Z,1007.02
2018-07-30T01:51:40.869Z,1007.06
2018-07-30T01:52:40.904Z,1007.07
2018-07-30T01:53:40.927Z,1007.10
2018-07-30T01:54:40.953Z,1007.03
2018-07-30T01:55:40.985Z,1007.02
2018-07-30T01:56:41.009Z,1007.06
2018-07-30T01:57:41.039Z,1007.06
2018-07-30T01:58:41.069Z,1007.06
2018-07-30T01:59:41.099Z,1007.07
2018-07-30T02:00:41.122Z,1007.07
2018-07-30T02:01:41.151Z,1007.08
2018-07-30T02:02:41.176Z,1007.08
2018-07-30T02:03:41.205Z,1007.13
2018-07-30T02:04:41.235Z,1007.14
2018-07-30T02:05:41.263Z,1007.13
2018-07-30T02:06:41.289Z,1007.17
2018-07-30T02:07:41.320Z,1007.14
2018-07-30T02:08:41.347Z,1007.15
2018-07-30T02:09:41.374Z,1007.10
2018-07-30T02:10:41.401Z,1007.13
2018-07-30T02:11:41.429Z,1007.10
2018-07-30T02:12:41.462Z,1007.11
2018-07-30T02:13:41.484Z,1007.14
2018-07-30T02:14:41.512Z,1007.14
2018-07-30T02:15:41.542Z,1007.16
2018-07-30T02:16:41.569Z,1007.20
2018-07-30T02:17:41.598Z,1007.15
2018-07-30T02:18:41.627Z,1007.20
2018-07-30T02:19:41.657Z,1007.16
2018-07-30T02:20:41.687Z,1007.17
2018-07-30T02:21:41.707Z,1007.17
2018-07-30T02:22:41.735Z,1007.17
2018-07-30T02:23:41.763Z,1007.12
2018-07-30T02:24:41.792Z,1007.14
2018-07-30T02:25:41.827Z,1007.13
2018-07-30T02:26:41.888Z,1007.17
2018-07-30T02:27:41.877Z,1007.17
2018-07-30T02:28:41.903Z,1007.17
2018-07-30T02:29:41.930Z,1007.21
2018-07-30T02:30:41.959Z,1007.18
2018-07-30T02:31:41.989Z,1007.18
2018-07-30T02:32:42.018Z,1007.21
2018-07-30T02:33:42.044Z,1007.20
2018-07-30T02:34:42.077Z,1007.19
2018-07-30T02:35:42.100Z,1007.15
2018-07-30T02:36:42.135Z,1007.21
2018-07-30T02:37:42.157Z,1007.18
2018-07-30T02:38:42.183Z,1007.19
2018-07-30T02:39:42.211Z,1007.17
2018-07-30T02:40:42.246Z,1007.16
2018-07-30T02:41:42.268Z,1007.13
2018-07-30T02:42:42.292Z,1007.14
2018-07-30T02:43:42.323Z,1007.19
2018-07-30T02:44:42.350Z,1007.17
2018-07-30T02:45:42.376Z,1007.18
2018-07-30T02:46:42.408Z,1007.19
2018-07-30T02:47:42.432Z,1007.20
2018-07-30T02:48:42.463Z,1007.23
2018-07-30T02:49:42.486Z,1007.20
2018-07-30T02:50:42.515Z,1007.24
2018-07-30T02:51:42.558Z,1007.24
2018-07-30T02:52:42.576Z,1007.23
2018-07-30T02:53:42.600Z,1007.24
2018-07-30T02:54:42.627Z,1007.24
2018-07-30T02:55:42.654Z,1007.22
2018-07-30T02:56:42.683Z,1007.26
2018-07-30T02:57:42.796Z,1007.27
2018-07-30T02:58:42.739Z,1007.23
2018-07-30T02:59:42.767Z,1007.25
2018-07-30T03:00:42.793Z,1007.29
2018-07-30T03:01:42.821Z,1007.26
2018-07-30T03:02:42.850Z,1007.26
2018-07-30T03:03:42.879Z,1007.30
2018-07-30T03:04:42.905Z,1007.27
2018-07-30T03:05:42.930Z,1007.33
2018-07-30T03:06:42.960Z,1007.33
2018-07-30T03:07:42.986Z,1007.33
2018-07-30T03:08:43.014Z,1007.33
2018-07-30T03:09:43.044Z,1007.33
2018-07-30T03:10:43.072Z,1007.34
2018-07-30T03:11:43.099Z,1007.37
2018-07-30T03:12:43.128Z,1007.40
2018-07-30T03:13:43.153Z,1007.33
2018-07-30T03:14:43.181Z,1007.36
2018-07-30T03:15:43.208Z,1007.36
2018-07-30T03:16:43.236Z,1007.36
2018-07-30T03:17:43.265Z,1007.36
2018-07-30T03:18:43.292Z,1007.39
2018-07-30T03:19:43.320Z,1007.41
2018-07-30T03:20:43.345Z,1007.37
2018-07-30T03:21:43.371Z,1007.45
2018-07-30T03:22:43.404Z,1007.48
2018-07-30T03:23:43.429Z,1007.43
2018-07-30T03:24:43.460Z,1007.47
2018-07-30T03:25:43.482Z,1007.45
2018-07-30T03:26:43.512Z,1007.46
2018-07-30T03:27:43.543Z,1007.43
2018-07-30T03:28:43.585Z,1007.45
2018-07-30T03:29:43.594Z,1007.47
2018-07-30T03:30:43.622Z,1007.45
2018-07-30T03:31:43.651Z,1007.48
2018-07-30T03:32:43.678Z,1007.45
2018-07-30T03:33:43.703Z,1007.48
2018-07-30T03:34:43.732Z,1007.44
2018-07-30T03:35:43.760Z,1007.49
2018-07-30T03:36:43.788Z,1007.51
2018-07-30T03:37:43.814Z,1007.49
2018-07-30T03:38:43.842Z,1007.48
2018-07-30T03:39:43.868Z,1007.51
2018-07-30T03:40:43.894Z,1007.54
2018-07-30T03:41:43.924Z,1007.47
2018-07-30T03:42:43.951Z,1007.49
2018-07-30T03:43:43.976Z,1007.49
2018-07-30T03:44:44.006Z,1007.50
2018-07-30T03:45:44.033Z,1007.46
2018-07-30T03:46:44.063Z,1007.45
2018-07-30T03:47:44.086Z,1007.45
2018-07-30T03:48:44.122Z,1007.46
2018-07-30T03:49:44.141Z,1007.43
2018-07-30T03:50:44.169Z,1007.48
2018-07-30T03:51:44.197Z,1007.49
2018-07-30T03:52:44.226Z,1007.49
2018-07-30T03:53:44.253Z,1007.50
2018-07-30T03:54:44.339Z,1007.53
2018-07-30T03:55:44.304Z,1007.50
2018-07-30T03:56:44.333Z,1007.55
2018-07-30T03:57:44.361Z,1007.58
2018-07-30T03:58:44.386Z,1007.58
2018-07-30T03:59:44.416Z,1007.58
2018-07-30T04:00:44.444Z,1007.54
2018-07-30T04:01:44.470Z,1007.58
2018-07-30T04:02:44.497Z,1007.63
2018-07-30T04:03:44.522Z,1007.57
2018-07-30T04:04:44.553Z,1007.58
2018-07-30T04:05:44.630Z,1007.56
2018-07-30T04:06:44.608Z,1007.56
2018-07-30T04:07:44.674Z,1007.55
2018-07-30T04:08:44.660Z,1007.55
2018-07-30T04:09:44.689Z,1007.57
2018-07-30T04:10:44.717Z,1007.59
2018-07-30T04:11:44.740Z,1007.58
2018-07-30T04:12:44.805Z,1007.60
2018-07-30T04:13:44.799Z,1007.60
2018-07-30T04:14:44.832Z,1007.55
2018-07-30T04:15:44.850Z,1007.61
2018-07-30T04:16:44.878Z,1007.59
2018-07-30T04:17:44.906Z,1007.61
2018-07-30T04:18:44.934Z,1007.56
2018-07-30T04:19:44.962Z,1007.60
2018-07-30T04:20:44.986Z,1007.59
2018-07-30T04:21:45.016Z,1007.61
2018-07-30T04:22:45.041Z,1007.61
2018-07-30T04:23:45.068Z,1007.66
2018-07-30T04:24:45.099Z,1007.64
2018-07-30T04:25:45.129Z,1007.68
2018-07-30T04:26:45.152Z,1007.71
2018-07-30T04:27:45.180Z,1007.75
2018-07-30T04:28:45.208Z,1007.77
2018-07-30T04:29:45.233Z,1007.75
2018-07-30T04:30:45.303Z,1007.74
2018-07-30T04:31:45.291Z,1007.76
2018-07-30T04:32:45.314Z,1007.81
2018-07-30T04:33:45.340Z,1007.76
2018-07-30T04:34:45.368Z,1007.77
2018-07-30T04:35:45.396Z,1007.79
2018-07-30T04:36:45.426Z,1007.81
2018-07-30T04:37:45.450Z,1007.84
2018-07-30T04:38:45.479Z,1007.79
2018-07-30T04:39:45.507Z,1007.77
2018-07-30T04:40:45.535Z,1007.79
2018-07-30T04:41:45.563Z,1007.78
2018-07-30T04:42:45.587Z,1007.75
2018-07-30T04:43:45.679Z,1007.77
2018-07-30T04:44:45.642Z,1007.76
2018-07-30T04:45:45.668Z,1007.79
2018-07-30T04:46:45.696Z,1007.79
2018-07-30T04:47:45.726Z,1007.81
2018-07-30T04:48:45.755Z,1007.80
2018-07-30T04:49:45.778Z,1007.85
2018-07-30T04:50:45.809Z,1007.87
2018-07-30T04:51:45.841Z,1007.95
2018-07-30T04:52:45.864Z,1007.92
2018-07-30T04:53:45.889Z,1007.95
2018-07-30T04:54:45.919Z,1007.93
2018-07-30T04:55:45.944Z,1007.95
2018-07-30T04:56:45.975Z,1007.93
2018-07-30T04:57:46.003Z,1007.95
2018-07-30T04:58:46.029Z,1007.93
2018-07-30T04:59:46.057Z,1007.95
2018-07-30T05:00:46.085Z,1007.94
2018-07-30T05:01:46.111Z,1007.96
2018-07-30T05:02:46.140Z,1007.98
2018-07-30T05:03:46.185Z,1007.97
2018-07-30T05:04:46.191Z,1007.97
2018-07-30T05:05:46.222Z,1007.98
2018-07-30T05:06:46.246Z,1007.97
2018-07-30T05:07:46.273Z,1007.99
2018-07-30T05:08:46.302Z,1007.97
2018-07-30T05:09:46.330Z,1007.94
2018-07-30T05:10:46.358Z,1007.93
2018-07-30T05:11:46.389Z,1007.95
2018-07-30T05:12:46.414Z,1007.98
2018-07-30T05:13:46.441Z,1008.00
2018-07-30T05:14:46.466Z,1008.00
2018-07-30T05:15:46.495Z,1007.99
2018-07-30T05:16:46.521Z,1008.05
2018-07-30T05:17:46.553Z,1008.05
2018-07-30T05:18:46.576Z,1008.11
2018-07-30T05:19:46.607Z,1008.14
2018-07-30T05:20:46.635Z,1008.08
2018-07-30T05:21:46.663Z,1008.09
2018-07-30T05:22:46.689Z,1008.06
2018-07-30T05:23:46.716Z,1008.11
2018-07-30T05:24:46.743Z,1008.11
2018-07-30T05:25:46.772Z,1008.13
2018-07-30T05:26:46.798Z,1008.19
2018-07-30T05:27:46.825Z,1008.18
2018-07-30T05:28:46.853Z,1008.12
2018-07-30T05:29:46.882Z,1008.06
2018-07-30T05:30:46.907Z,1008.07
2018-07-30T05:31:47.088Z,1008.10
2018-07-30T05:32:46.964Z,1008.14
2018-07-30T05:33:46.993Z,1008.12
2018-07-30T05:34:47.023Z,1008.22
2018-07-30T05:35:47.047Z,1008.21
2018-07-30T05:36:47.077Z,1008.20
2018-07-30T05:37:47.109Z,1008.28
2018-07-30T05:38:47.130Z,1008.25
2018-07-30T05:39:47.161Z,1008.19
2018-07-30T05:40:47.187Z,1008.18
2018-07-30T05:41:47.218Z,1008.22
2018-07-30T05:42:47.268Z,1008.31
2018-07-30T05:43:47.278Z,1008.28
2018-07-30T05:44:47.301Z,1008.24
2018-07-30T05:45:47.328Z,1008.18
2018-07-30T05:46:47.354Z,1008.20
2018-07-30T05:47:47.383Z,1008.19
2018-07-30T05:48:47.413Z,1008.33
2018-07-30T05:49:47.439Z,1008.35
2018-07-30T05:50:47.466Z,1008.36
2018-07-30T05:51:47.497Z,1008.40
2018-07-30T05:52:47.522Z,1008.43
2018-07-30T05:53:47.553Z,1008.41
2018-07-30T05:54:47.580Z,1008.42
2018-07-30T05:55:47.609Z,1008.42
2018-07-30T05:56:47.636Z,1008.39
2018-07-30T05:57:47.663Z,1008.41
2018-07-30T05:58:47.695Z,1008.44
2018-07-30T05:59:47.755Z,1008.44
2018-07-30T06:00:47.753Z,1008.50
2018-07-30T06:01:47.781Z,1008.45
2018-07-30T06:02:47.810Z,1008.44
2018-07-30T06:03:47.836Z,1008.47
2018-07-30T06:04:47.866Z,1008.48
2018-07-30T06:05:47.896Z,1008.53
2018-07-30T06:06:47.926Z,1008.55
2018-07-30T06:07:47.957Z,1008.54
2018-07-30T06:08:47.983Z,1008.56
2018-07-30T06:09:48.013Z,1008.60
2018-07-30T06:10:48.041Z,1008.58
2018-07-30T06:11:48.074Z,1008.58
2018-07-30T06:12:48.104Z,1008.58
2018-07-30T06:13:48.243Z,1008.58
2018-07-30T06:14:48.164Z,1008.60
2018-07-30T06:15:48.191Z,1008.59
2018-07-30T06:16:48.225Z,1008.65
2018-07-30T06:17:48.251Z,1008.60
2018-07-30T06:18:48.282Z,1008.61
2018-07-30T06:19:48.312Z,1008.51
2018-07-30T06:20:48.357Z,1008.36
2018-07-30T06:21:48.376Z,1008.35
2018-07-30T06:22:48.405Z,1008.37
2018-07-30T06:23:48.437Z,1008.44
2018-07-30T06:24:48.466Z,1008.53
2018-07-30T06:25:48.498Z,1008.54
2018-07-30T06:26:48.530Z,1008.42
2018-07-30T06:27:48.558Z,1008.45
2018-07-30T06:28:48.671Z,1008.48
2018-07-30T06:29:48.619Z,1008.66
2018-07-30T06:30:48.651Z,1008.66
2018-07-30T06:31:48.689Z,1008.63
2018-07-30T06:32:48.717Z,1008.66
2018-07-30T06:33:48.747Z,1008.67
2018-07-30T06:34:48.778Z,1008.71
2018-07-30T06:35:48.808Z,1008.68
2018-07-30T06:36:48.837Z,1008.65
2018-07-30T06:37:48.870Z,1008.62
2018-07-30T06:38:48.903Z,1008.70
2018-07-30T06:39:48.932Z,1008.67
2018-07-30T06:40:48.962Z,1008.69
2018-07-30T06:41:48.993Z,1008.72
2018-07-30T06:42:49.025Z,1008.73
2018-07-30T06:43:49.056Z,1008.71
2018-07-30T06:44:49.090Z,1008.75
2018-07-30T06:45:49.122Z,1008.74
2018-07-30T06:46:49.154Z,1008.76
2018-07-30T06:47:49.240Z,1008.78
2018-07-30T06:48:49.217Z,1008.70
2018-07-30T06:49:49.247Z,1008.63
2018-07-30T06:50:49.280Z,1008.66
2018-07-30T06:51:49.316Z,1008.73
2018-07-30T06:52:49.347Z,1008.71
2018-07-30T06:53:49.377Z,1008.81
2018-07-30T06:54:49.411Z,1008.79
2018-07-30T06:55:49.489Z,1008.71
2018-07-30T06:56:49.474Z,1008.73
2018-07-30T06:57:49.517Z,1008.74
2018-07-30T06:58:49.539Z,1008.68
2018-07-30T06:59:49.572Z,1008.73
2018-07-30T07:00:49.608Z,1008.75
2018-07-30T07:01:49.641Z,1008.79
2018-07-30T07:02:49.673Z,1008.87
2018-07-30T07:03:49.707Z,1008.78
2018-07-30T07:04:49.745Z,1008.91
2018-07-30T07:05:49.779Z,1008.94
2018-07-30T07:06:49.804Z,1009.01
2018-07-30T07:07:49.838Z,1008.94
2018-07-30T07:08:49.873Z,1008.87
2018-07-30T07:09:49.907Z,1008.81
2018-07-30T07:10:49.952Z,1008.97
2018-07-30T07:11:49.974Z,1009.05
2018-07-30T07:12:50.006Z,1009.37
2018-07-30T07:13:50.041Z,1009.53
2018-07-30T07:14:50.078Z,1009.48
2018-07-30T07:15:50.112Z,1009.57
2018-07-30T07:16:50.185Z,1009.61
2018-07-30T07:17:50.235Z,1009.71
2018-07-30T07:18:50.234Z,1009.80
2018-07-30T07:19:50.243Z,1010.00
2018-07-30T07:20:50.330Z,1010.15
2018-07-30T07:21:50.330Z,1010.09
2018-07-30T07:22:50.349Z,1010.07
2018-07-30T07:23:50.382Z,1010.15
2018-07-30T07:24:50.417Z,1010.32
2018-07-30T07:25:50.450Z,1010.31
2018-07-30T07:26:50.493Z,1010.19
2018-07-30T07:27:50.538Z,1010.08
2018-07-30T07:28:50.553Z,1009.96
2018-07-30T07:29:50.591Z,1009.92
2018-07-30T07:30:50.622Z,1009.61
2018-07-30T07:31:50.660Z,1009.40
2018-07-30T07:32:50.698Z,1009.48
2018-07-30T07:33:50.728Z,1009.42
2018-07-30T07:34:50.809Z,1009.29
2018-07-30T07:35:50.797Z,1009.61
2018-07-30T07:36:50.834Z,1009.54
2018-07-30T07:37:50.870Z,1009.54
2018-07-30T07:38:50.903Z,1009.53
2018-07-30T07:39:50.939Z,1009.54
2018-07-30T07:40:50.975Z,1009.51
2018-07-30T07:41:51.006Z,1009.45
2018-07-30T07:42:51.047Z,1009.42
2018-07-30T07:43:51.077Z,1009.45
2018-07-30T07:44:51.327Z,1009.40
2018-07-30T07:45:51.149Z,1009.44
2018-07-30T07:46:51.182Z,1009.37
2018-07-30T07:47:51.219Z,1009.33
2018-07-30T07:48:51.254Z,1009.33
2018-07-30T07:49:51.293Z,1009.32
2018-07-30T07:50:51.606Z,1009.37
2018-07-30T07:51:51.362Z,1009.45
2018-07-30T07:52:51.394Z,1009.41
2018-07-30T07:53:51.434Z,1009.37
2018-07-30T07:54:51.468Z,1009.39
2018-07-30T07:55:51.507Z,1009.42
2018-07-30T07:56:51.541Z,1009.43
2018-07-30T07:58:54.238Z,1009.20
2018-07-30T07:59:51.654Z,1009.28
2018-07-30T08:00:55.331Z,1009.45
2018-07-30T08:01:51.733Z,1009.40
2018-07-30T08:02:52.086Z,1009.48
2018-07-30T08:03:51.867Z,1009.47
2018-07-30T08:04:51.842Z,1009.52
2018-07-30T08:05:51.879Z,1009.53
2018-07-30T08:06:51.916Z,1009.55
2018-07-30T08:07:51.952Z,1009.61
2018-07-30T08:08:51.985Z,1009.64
2018-07-30T08:09:52.147Z,1009.58
2018-07-30T08:10:52.097Z,1009.35
2018-07-30T08:11:52.095Z,1009.31
2018-07-30T08:12:52.129Z,1009.35
2018-07-30T08:13:52.166Z,1009.16
2018-07-30T08:14:52.202Z,1009.27
2018-07-30T08:15:52.239Z,1009.49
2018-07-30T08:16:52.275Z,1009.33
2018-07-30T08:17:52.313Z,1009.23
2018-07-30T08:18:52.349Z,1009.05
2018-07-30T08:19:52.383Z,1009.14
2018-07-30T08:20:52.424Z,1009.24
2018-07-30T08:21:52.458Z,1009.57
2018-07-30T08:22:52.490Z,1009.51
2018-07-30T08:23:52.528Z,1009.51
2018-07-30T08:24:52.565Z,1009.52
2018-07-30T08:25:52.599Z,1009.50
2018-07-30T08:26:52.633Z,1009.47
2018-07-30T08:27:52.672Z,1009.53
2018-07-30T08:28:52.708Z,1009.48
2018-07-30T08:29:52.740Z,1009.55
2018-07-30T08:30:54.202Z,1009.54
2018-07-30T08:31:52.813Z,1009.56
2018-07-30T08:32:52.908Z,1009.54
2018-07-30T08:33:52.885Z,1009.60
2018-07-30T08:34:52.925Z,1009.61
2018-07-30T08:35:52.963Z,1009.47
2018-07-30T08:36:52.995Z,1009.35
2018-07-30T08:37:53.030Z,1009.35
2018-07-30T08:38:53.067Z,1009.34
2018-07-30T08:39:53.105Z,1009.71
2018-07-30T08:40:53.140Z,1009.38
2018-07-30T08:41:53.231Z,1009.59
2018-07-30T08:42:53.265Z,1009.60
2018-07-30T08:43:53.248Z,1009.38
2018-07-30T08:44:53.285Z,1009.33
2018-07-30T08:45:53.320Z,1009.36
2018-07-30T08:46:53.358Z,1009.34
2018-07-30T08:47:53.393Z,1009.29
2018-07-30T08:48:53.447Z,1009.26
2018-07-30T08:49:53.466Z,1009.26
2018-07-30T08:50:53.503Z,1009.31
2018-07-30T08:51:53.539Z,1009.21
2018-07-30T08:52:53.574Z,1009.25
2018-07-30T08:53:53.631Z,1009.43
2018-07-30T08:54:53.645Z,1009.22
2018-07-30T08:55:53.681Z,1009.19
2018-07-30T08:56:53.717Z,1009.65
2018-07-30T08:57:53.754Z,1009.63
2018-07-30T08:58:53.783Z,1009.95
2018-07-30T08:59:53.822Z,1009.65
2018-07-30T09:00:53.858Z,1009.54
2018-07-30T09:01:53.893Z,1009.86
2018-07-30T09:02:53.925Z,1009.97
2018-07-30T09:03:53.964Z,1009.61
2018-07-30T09:04:53.996Z,1009.42
2018-07-30T09:05:54.030Z,1009.27
2018-07-30T09:06:54.066Z,1009.28
2018-07-30T09:07:54.103Z,1009.29
2018-07-30T09:08:54.139Z,1009.56
2018-07-30T09:09:54.173Z,1009.90
2018-07-30T09:10:54.208Z,1009.33
2018-07-30T09:11:54.243Z,1009.30
2018-07-30T09:12:54.402Z,1009.38
2018-07-30T09:13:54.318Z,1009.82
2018-07-30T09:14:54.347Z,1009.27
2018-07-30T09:15:54.387Z,1009.12
2018-07-30T09:16:54.420Z,1009.13
2018-07-30T09:17:54.455Z,1009.19
2018-07-30T09:18:54.489Z,1009.39
2018-07-30T09:19:54.527Z,1009.59
2018-07-30T09:20:54.563Z,1009.67
2018-07-30T09:21:54.597Z,1009.58
2018-07-30T09:22:54.634Z,1009.25
2018-07-30T09:23:54.666Z,1009.42
2018-07-30T09:24:54.702Z,1009.66
2018-07-30T09:25:54.738Z,1009.63
2018-07-30T09:26:54.803Z,1009.65
2018-07-30T09:27:54.857Z,1009.63
2018-07-30T09:28:54.844Z,1009.63
2018-07-30T09:29:54.890Z,1009.64
2018-07-30T09:30:54.918Z,1009.59
2018-07-30T09:31:54.955Z,1009.70
2018-07-30T09:32:55.135Z,1009.70
2018-07-30T09:33:55.023Z,1009.77
2018-07-30T09:34:55.062Z,1009.78
2018-07-30T09:35:55.095Z,1009.84
2018-07-30T09:36:55.133Z,1009.80
2018-07-30T09:37:55.167Z,1009.79
2018-07-30T09:38:55.204Z,1009.92
2018-07-30T09:39:55.240Z,1009.93
2018-07-30T09:40:55.280Z,1009.96
2018-07-30T09:41:55.313Z,1009.99
2018-07-30T09:42:55.352Z,1009.95
2018-07-30T09:43:55.389Z,1009.95
2018-07-30T09:44:55.527Z,1009.96
2018-07-30T09:45:55.462Z,1009.95
2018-07-30T09:46:55.496Z,1009.97
2018-07-30T09:47:55.533Z,1009.96
2018-07-30T09:48:55.569Z,1009.95
2018-07-30T09:49:55.606Z,1010.00
2018-07-30T09:50:55.644Z,1010.04
2018-07-30T09:51:55.681Z,1010.00
2018-07-30T09:52:55.716Z,1010.08
2018-07-30T09:53:55.752Z,1010.08
2018-07-30T09:54:55.791Z,1009.98
2018-07-30T09:55:55.826Z,1009.94
2018-07-30T09:56:55.862Z,1009.88
2018-07-30T09:57:55.901Z,1009.88
2018-07-30T09:58:55.936Z,1009.91
2018-07-30T09:59:55.971Z,1009.89
2018-07-30T10:00:56.013Z,1009.86
2018-07-30T10:01:56.048Z,1009.79
2018-07-30T10:02:56.081Z,1009.86
2018-07-30T10:03:56.118Z,1009.77
2018-07-30T10:04:56.156Z,1009.76
2018-07-30T10:05:56.194Z,1009.75
2018-07-30T10:06:56.228Z,1009.67
2018-07-30T10:07:56.266Z,1009.64
2018-07-30T10:08:56.303Z,1009.70
2018-07-30T10:09:56.340Z,1009.71
2018-07-30T10:10:56.379Z,1009.72
2018-07-30T10:11:56.416Z,1009.74
2018-07-30T10:12:56.453Z,1009.70
2018-07-30T10:13:56.488Z,1009.64
2018-07-30T10:14:56.530Z,1009.63
2018-07-30T10:15:56.564Z,1009.61
2018-07-30T10:16:56.601Z,1009.68
2018-07-30T10:17:56.688Z,1009.73
2018-07-30T10:18:56.676Z,1009.37
2018-07-30T10:19:56.712Z,1009.66
2018-07-30T10:20:56.747Z,1009.68
2018-07-30T10:21:56.786Z,1009.55
2018-07-30T10:22:56.824Z,1009.67
2018-07-30T10:23:56.862Z,1009.33
2018-07-30T10:24:56.898Z,1009.46
2018-07-30T10:25:56.936Z,1009.61
2018-07-30T10:26:56.972Z,1009.67
2018-07-30T10:27:57.008Z,1009.69
2018-07-30T10:28:57.050Z,1009.65
2018-07-30T10:29:57.089Z,1009.63
2018-07-30T10:30:57.123Z,1009.66
2018-07-30T10:31:57.157Z,1009.60
2018-07-30T10:32:57.223Z,1009.65
2018-07-30T10:33:57.230Z,1009.61
2018-07-30T10:34:57.274Z,1009.67
2018-07-30T10:35:57.308Z,1009.69
2018-07-30T10:36:57.343Z,1009.64
2018-07-30T10:37:57.462Z,1009.67
2018-07-30T10:38:57.420Z,1009.68
2018-07-30T10:39:57.497Z,1009.67
2018-07-30T10:40:57.495Z,1009.67
2018-07-30T10:41:57.532Z,1009.73
2018-07-30T10:42:57.566Z,1008.94
2018-07-30T10:43:57.605Z,1008.65
2018-07-30T10:44:57.643Z,1008.60
2018-07-30T10:45:57.678Z,1008.62
2018-07-30T10:46:57.745Z,1009.12
2018-07-30T10:47:57.751Z,1009.53
2018-07-30T10:48:57.792Z,1009.16
2018-07-30T10:49:57.830Z,1008.96
2018-07-30T10:50:57.862Z,1008.80
2018-07-30T10:51:57.947Z,1009.50
2018-07-30T10:52:57.939Z,1009.19
2018-07-30T10:53:57.975Z,1008.73
2018-07-30T10:54:58.012Z,1009.15
2018-07-30T10:55:58.049Z,1008.85
2018-07-30T10:56:58.084Z,1009.57
2018-07-30T10:57:58.119Z,1009.03
2018-07-30T10:58:58.158Z,1008.69
2018-07-30T10:59:58.195Z,1008.64
2018-07-30T11:00:58.252Z,1008.85
2018-07-30T11:01:58.264Z,1008.61
2018-07-30T11:02:58.304Z,1008.56
2018-07-30T11:03:58.339Z,1008.54
2018-07-30T11:04:58.377Z,1008.58
2018-07-30T11:05:58.408Z,1008.58
2018-07-30T11:06:58.446Z,1008.54
2018-07-30T11:07:58.490Z,1008.55
2018-07-30T11:08:58.519Z,1008.59
2018-07-30T11:09:58.554Z,1009.09
2018-07-30T11:10:58.589Z,1009.70
2018-07-30T11:11:58.622Z,1009.71
2018-07-30T11:12:58.660Z,1009.73
2018-07-30T11:13:58.696Z,1009.66
2018-07-30T11:14:58.728Z,1009.65
2018-07-30T11:15:58.768Z,1009.60
2018-07-30T11:16:58.802Z,1009.57
2018-07-30T11:17:58.837Z,1009.54
2018-07-30T11:18:58.873Z,1009.48
2018-07-30T11:19:58.905Z,1009.49
2018-07-30T11:20:58.943Z,1009.52
2018-07-30T11:21:58.978Z,1009.23
2018-07-30T11:22:59.013Z,1008.94
2018-07-30T11:23:59.049Z,1009.01
2018-07-30T11:24:59.088Z,1009.55
2018-07-30T11:25:59.123Z,1009.63
2018-07-30T11:26:59.159Z,1009.60
2018-07-30T11:27:59.325Z,1009.67
2018-07-30T11:28:59.229Z,1009.65
2018-07-30T11:29:59.266Z,1009.63
2018-07-30T11:30:59.301Z,1009.60
2018-07-30T11:31:59.340Z,1009.64
2018-07-30T11:32:59.378Z,1009.70
2018-07-30T11:33:59.412Z,1009.65
2018-07-30T11:34:59.500Z,1009.61
2018-07-30T11:35:59.487Z,1009.66
2018-07-30T11:36:59.526Z,1009.70
2018-07-30T11:37:59.556Z,1009.68
2018-07-30T11:38:59.594Z,1009.69
2018-07-30T11:39:59.633Z,1009.63
2018-07-30T11:40:59.670Z,1009.61
2018-07-30T11:41:59.705Z,1009.63
2018-07-30T11:42:59.754Z,1009.68
2018-07-30T11:43:59.778Z,1009.75
2018-07-30T11:44:59.817Z,1009.78
2018-07-30T11:45:59.854Z,1009.90
2018-07-30T11:46:59.892Z,1010.00
2018-07-30T11:47:59.926Z,1010.05
2018-07-30T11:48:59.965Z,1010.18
2018-07-30T11:49:59.999Z,1009.48
2018-07-30T11:51:00.037Z,1009.53
2018-07-30T11:52:00.079Z,1010.19
2018-07-30T11:53:00.169Z,1010.09
2018-07-30T11:54:00.171Z,1009.46
2018-07-30T11:55:00.185Z,1009.56
2018-07-30T11:56:00.226Z,1010.50
2018-07-30T11:57:00.264Z,1010.73
2018-07-30T11:58:00.297Z,1010.96
2018-07-30T11:59:00.337Z,1011.15
2018-07-30T12:00:00.372Z,1011.30
2018-07-30T12:01:00.482Z,1011.24
2018-07-30T12:02:00.449Z,1011.26
2018-07-30T12:03:00.485Z,1011.46
2018-07-30T12:04:00.519Z,1011.71
2018-07-30T12:05:00.557Z,1011.66
2018-07-30T12:06:00.595Z,1011.73
2018-07-30T12:07:00.631Z,1012.00